createdAt,value
2022-12-31T00:00:05.113Z,100370.75
2022-12-31T00:02:31.752Z,100370.75
2022-12-31T00:04:58.239Z,100381.34
2022-12-31T00:07:24.884Z,100369.34
2022-12-31T00:09:51.257Z,100369.75
2022-12-31T00:12:17.675Z,100369.75
2022-12-31T00:14:44.390Z,100360.94
2022-12-31T00:17:10.853Z,100358.31
2022-12-31T00:19:37.399Z,100372.75
2022-12-31T00:22:03.806Z,100376.34
2022-12-31T00:24:31.164Z,100380.56
2022-12-31T00:26:57.685Z,100378.16
2022-12-31T00:29:24.215Z,100390.34
2022-12-31T00:31:50.657Z,100389.34
2022-12-31T00:34:17.111Z,100389.34
2022-12-31T00:36:45.916Z,100383.34
2022-12-31T00:39:13.052Z,100384.97
2022-12-31T00:41:39.715Z,100391.94
2022-12-31T00:44:06.438Z,100382.34
2022-12-31T00:46:32.932Z,100385.94
2022-12-31T00:48:59.605Z,100390.34
2022-12-31T00:51:27.653Z,100397.34
2022-12-31T00:53:56.985Z,100392.13
2022-12-31T00:56:28.611Z,100389.53
2022-12-31T00:58:55.264Z,100386.94
2022-12-31T01:01:24.746Z,100385.94
2022-12-31T01:03:53.433Z,100395.75
2022-12-31T01:06:20.929Z,100384.53
2022-12-31T01:08:51.610Z,100386.75
2022-12-31T01:11:24.632Z,100394.94
2022-12-31T01:13:57.540Z,100389.34
2022-12-31T01:16:42.496Z,100392.13
2022-12-31T01:19:12.381Z,100395.13
2022-12-31T01:21:40.776Z,100391.94
2022-12-31T01:24:08.284Z,100394.13
2022-12-31T01:26:34.780Z,100390.91
2022-12-31T01:29:01.562Z,100386.72
2022-12-31T01:31:28.288Z,100389.50
2022-12-31T01:33:54.802Z,100392.31
2022-12-31T01:36:27.954Z,100391.50
2022-12-31T01:38:56.301Z,100394.31
2022-12-31T01:41:26.338Z,100398.09
2022-12-31T01:44:01.398Z,100401.69
2022-12-31T01:46:34.083Z,100401.88
2022-12-31T01:49:08.976Z,100397.69
2022-12-31T01:51:36.373Z,100392.69
2022-12-31T01:54:06.523Z,100393.06
2022-12-31T01:56:34.974Z,100399.88
2022-12-31T01:59:05.564Z,100402.88
2022-12-31T02:01:33.619Z,100410.03
2022-12-31T02:04:11.246Z,100411.06
2022-12-31T02:06:43.020Z,100417.66
2022-12-31T02:09:11.279Z,100413.47
2022-12-31T02:11:38.172Z,100412.44
2022-12-31T02:14:09.669Z,100398.47
2022-12-31T02:17:03.964Z,100390.06
2022-12-31T02:20:02.766Z,100381.44
2022-12-31T02:23:17.661Z,100384.88
2022-12-31T02:25:53.171Z,100381.66
2022-12-31T02:29:08.445Z,100380.84
2022-12-31T02:31:42.503Z,100373.06
2022-12-31T02:34:17.953Z,100361.88
2022-12-31T02:36:47.956Z,100359.28
2022-12-31T02:39:15.158Z,100357.47
2022-12-31T02:41:50.453Z,100363.47
2022-12-31T02:44:38.050Z,100356.88
2022-12-31T02:47:20.390Z,100357.84
2022-12-31T02:50:07.972Z,100376.03
2022-12-31T02:52:51.986Z,100384.03
2022-12-31T02:55:32.035Z,100392.22
2022-12-31T02:58:01.413Z,100403.44
2022-12-31T03:00:50.137Z,100410.59
2022-12-31T03:03:18.428Z,100413.63
2022-12-31T03:05:46.695Z,100416.41
2022-12-31T03:08:21.455Z,100424.41
2022-12-31T03:10:47.828Z,100427.97
2022-12-31T03:13:14.234Z,100436.75
2022-12-31T03:15:40.764Z,100418.56
2022-12-31T03:18:12.864Z,100427.38
2022-12-31T03:21:01.022Z,100420.56
2022-12-31T03:23:33.218Z,100422.38
2022-12-31T03:26:00.396Z,100416.56
2022-12-31T03:28:29.735Z,100420.94
2022-12-31T03:31:01.413Z,100428.75
2022-12-31T03:33:37.190Z,100420.34
2022-12-31T03:36:05.856Z,100419.56
2022-12-31T03:38:32.305Z,100423.34
2022-12-31T03:40:59.026Z,100427.75
2022-12-31T03:43:25.504Z,100429.72
2022-12-31T03:45:53.302Z,100422.09
2022-12-31T03:48:22.137Z,100417.13
2022-12-31T03:50:49.418Z,100411.13
2022-12-31T03:53:16.119Z,100402.72
2022-12-31T03:55:42.489Z,100413.28
2022-12-31T03:58:08.908Z,100409.91
2022-12-31T04:00:35.279Z,100412.69
2022-12-31T04:03:02.831Z,100412.88
2022-12-31T04:05:29.211Z,100407.88
2022-12-31T04:07:56.495Z,100398.66
2022-12-31T04:10:22.936Z,100409.06
2022-12-31T04:12:49.379Z,100406.66
2022-12-31T04:15:20.745Z,100393.06
2022-12-31T04:17:48.156Z,100380.28
2022-12-31T04:20:15.567Z,100387.47
2022-12-31T04:22:42.006Z,100384.03
2022-12-31T04:25:11.885Z,100375.66
2022-12-31T04:27:43.703Z,100370.66
2022-12-31T04:30:12.323Z,100365.44
2022-12-31T04:32:38.785Z,100374.25
2022-12-31T04:35:05.747Z,100384.63
2022-12-31T04:37:32.336Z,100385.63
2022-12-31T04:40:03.692Z,100398.81
2022-12-31T04:42:32.169Z,100393.59
2022-12-31T04:44:58.618Z,100389.41
2022-12-31T04:47:25.069Z,100392.19
2022-12-31T04:49:51.423Z,100394.00
2022-12-31T04:52:18.008Z,100394.16
2022-12-31T04:54:44.425Z,100393.34
2022-12-31T04:57:10.996Z,100388.94
2022-12-31T04:59:37.529Z,100400.13
2022-12-31T05:02:04.051Z,100403.75
2022-12-31T05:04:30.721Z,100395.16
2022-12-31T05:06:57.079Z,100384.56
2022-12-31T05:09:24.180Z,100394.94
2022-12-31T05:11:50.628Z,100393.34
2022-12-31T05:14:17.277Z,100406.34
2022-12-31T05:16:43.975Z,100391.53
2022-12-31T05:19:10.561Z,100394.94
2022-12-31T05:21:37.044Z,100394.16
2022-12-31T05:24:03.623Z,100403.75
2022-12-31T05:26:30.349Z,100393.19
2022-12-31T05:28:57.019Z,100390.41
2022-12-31T05:31:23.487Z,100403.00
2022-12-31T05:33:49.991Z,100410.81
2022-12-31T05:36:16.430Z,100411.41
2022-12-31T05:38:44.182Z,100413.63
2022-12-31T05:41:11.241Z,100416.03
2022-12-31T05:43:40.519Z,100414.81
2022-12-31T05:46:07.384Z,100413.66
2022-12-31T05:48:33.853Z,100410.66
2022-12-31T05:51:00.285Z,100410.69
2022-12-31T05:53:26.908Z,100405.91
2022-12-31T05:55:53.327Z,100389.94
2022-12-31T05:58:19.920Z,100398.16
2022-12-31T06:00:46.516Z,100397.75
2022-12-31T06:03:13.190Z,100405.19
2022-12-31T06:05:43.254Z,100399.78
2022-12-31T06:08:11.439Z,100408.19
2022-12-31T06:10:38.325Z,100402.59
2022-12-31T06:13:05.237Z,100408.41
2022-12-31T06:15:31.994Z,100406.63
2022-12-31T06:17:58.423Z,100407.03
2022-12-31T06:20:25.023Z,100412.81
2022-12-31T06:22:51.681Z,100419.44
2022-12-31T06:25:18.284Z,100415.03
2022-12-31T06:27:44.706Z,100409.44
2022-12-31T06:30:11.908Z,100419.66
2022-12-31T06:32:39.390Z,100421.06
2022-12-31T06:35:06.715Z,100418.47
2022-12-31T06:37:33.353Z,100420.88
2022-12-31T06:40:00.441Z,100424.88
2022-12-31T06:42:31.358Z,100430.69
2022-12-31T06:44:58.988Z,100431.28
2022-12-31T06:47:25.980Z,100436.69
2022-12-31T06:49:53.132Z,100437.69
2022-12-31T06:52:19.861Z,100431.31
2022-12-31T06:54:46.493Z,100431.72
2022-12-31T06:57:13.275Z,100438.16
2022-12-31T06:59:39.990Z,100436.53
2022-12-31T07:02:29.993Z,100428.94
2022-12-31T07:05:26.667Z,100429.97
2022-12-31T07:08:08.268Z,100428.16
2022-12-31T07:10:43.914Z,100423.19
2022-12-31T07:13:27.116Z,100427.97
2022-12-31T07:16:31.198Z,100421.38
2022-12-31T07:19:17.496Z,100402.38
2022-12-31T07:21:44.353Z,100412.78
2022-12-31T07:24:11.526Z,100407.19
2022-12-31T07:27:01.895Z,100410.16
2022-12-31T07:29:57.836Z,100413.78
2022-12-31T07:32:41.583Z,100416.63
2022-12-31T07:35:21.882Z,100413.22
2022-12-31T07:37:48.199Z,100421.22
2022-12-31T07:40:38.314Z,100429.59
2022-12-31T07:43:16.999Z,100435.19
2022-12-31T07:46:22.551Z,100434.59
2022-12-31T07:48:49.575Z,100442.59
2022-12-31T07:51:16.441Z,100438.59
2022-12-31T07:53:42.912Z,100441.81
2022-12-31T07:56:09.831Z,100442.41
2022-12-31T07:58:55.213Z,100456.63
2022-12-31T08:01:48.132Z,100451.63
2022-12-31T08:04:20.844Z,100458.00
2022-12-31T08:07:06.329Z,100447.38
2022-12-31T08:10:15.652Z,100442.78
2022-12-31T08:12:46.791Z,100466.03
2022-12-31T08:15:15.946Z,100460.22
2022-12-31T08:17:43.503Z,100456.59
2022-12-31T08:20:15.835Z,100460.00
2022-12-31T08:23:04.245Z,100466.03
2022-12-31T08:25:54.991Z,100458.81
2022-12-31T08:28:36.714Z,100467.63
2022-12-31T08:31:19.736Z,100469.44
2022-12-31T08:34:05.590Z,100470.22
2022-12-31T08:36:36.593Z,100481.88
2022-12-31T08:39:13.248Z,100496.47
2022-12-31T08:41:43.420Z,100504.28
2022-12-31T08:44:49.521Z,100508.72
2022-12-31T08:47:34.130Z,100514.72
2022-12-31T08:50:04.464Z,100525.13
2022-12-31T08:52:31.105Z,100530.16
2022-12-31T08:54:58.025Z,100552.59
2022-12-31T08:57:37.141Z,100547.59
2022-12-31T09:00:09.987Z,100559.00
2022-12-31T09:03:03.930Z,100577.25
2022-12-31T09:05:55.007Z,100566.03
2022-12-31T09:08:36.769Z,100557.22
2022-12-31T09:11:06.088Z,100574.63
2022-12-31T09:13:38.429Z,100582.25
2022-12-31T09:16:24.016Z,100566.81
2022-12-31T09:18:50.619Z,100580.47
2022-12-31T09:21:17.153Z,100595.66
2022-12-31T09:23:43.805Z,100579.63
2022-12-31T09:26:16.174Z,100594.69
2022-12-31T09:29:04.178Z,100586.06
2022-12-31T09:31:33.035Z,100589.88
2022-12-31T09:34:12.901Z,100580.63
2022-12-31T09:36:48.525Z,100582.06
2022-12-31T09:39:25.707Z,100584.44
2022-12-31T09:41:55.218Z,100574.81
2022-12-31T09:44:59.171Z,100577.81
2022-12-31T09:47:59.680Z,100584.84
2022-12-31T09:50:52.649Z,100586.44
2022-12-31T09:53:29.175Z,100596.25
2022-12-31T09:56:17.036Z,100599.25
2022-12-31T09:59:05.296Z,100592.59
2022-12-31T10:01:37.855Z,100595.63
2022-12-31T10:04:28.514Z,100603.03
2022-12-31T10:07:16.839Z,100600.63
2022-12-31T10:10:19.763Z,100591.19
2022-12-31T10:13:05.233Z,100593.19
2022-12-31T10:16:05.443Z,100592.19
2022-12-31T10:19:05.758Z,100599.78
2022-12-31T10:21:47.398Z,100589.13
2022-12-31T10:24:47.935Z,100590.94
2022-12-31T10:27:28.619Z,100587.06
2022-12-31T10:30:03.388Z,100598.28
2022-12-31T10:32:38.780Z,100598.25
2022-12-31T10:35:26.957Z,100603.84
2022-12-31T10:38:06.097Z,100596.19
2022-12-31T10:41:26.460Z,100606.78
2022-12-31T10:44:26.295Z,100608.19
2022-12-31T10:47:34.228Z,100601.78
2022-12-31T10:50:30.337Z,100612.84
2022-12-31T10:52:59.717Z,100621.66
2022-12-31T10:56:01.384Z,100607.63
2022-12-31T10:59:10.826Z,100605.00
2022-12-31T11:02:10.121Z,100604.38
2022-12-31T11:04:55.625Z,100607.22
2022-12-31T11:07:40.478Z,100620.69
2022-12-31T11:10:25.488Z,100607.44
2022-12-31T11:12:59.966Z,100605.25
2022-12-31T11:15:55.919Z,100619.91
2022-12-31T11:19:00.980Z,100615.94
2022-12-31T11:21:49.164Z,100601.66
2022-12-31T11:24:33.703Z,100607.44
2022-12-31T11:27:18.691Z,100604.84
2022-12-31T11:30:06.949Z,100595.44
2022-12-31T11:32:50.633Z,100600.03
2022-12-31T11:35:43.354Z,100604.47
2022-12-31T11:38:29.866Z,100615.94
2022-12-31T11:41:11.140Z,100614.31
2022-12-31T11:43:46.102Z,100609.09
2022-12-31T11:46:28.064Z,100624.56
2022-12-31T11:49:23.965Z,100615.94
2022-12-31T11:52:32.680Z,100632.38
2022-12-31T11:55:14.302Z,100620.34
2022-12-31T11:57:46.527Z,100621.16
2022-12-31T12:00:19.014Z,100619.31
2022-12-31T12:03:10.564Z,100617.06
2022-12-31T12:05:39.685Z,100599.78
2022-12-31T12:08:07.038Z,100602.34
2022-12-31T12:10:38.436Z,100593.06
2022-12-31T12:13:21.786Z,100593.47
2022-12-31T12:15:51.423Z,100589.63
2022-12-31T12:18:40.855Z,100582.38
2022-12-31T12:21:22.249Z,100583.19
2022-12-31T12:24:04.025Z,100593.63
2022-12-31T12:26:43.113Z,100588.84
2022-12-31T12:29:20.731Z,100589.03
2022-12-31T12:32:04.137Z,100592.66
2022-12-31T12:34:37.161Z,100581.22
2022-12-31T12:37:03.853Z,100584.97
2022-12-31T12:39:32.723Z,100585.81
2022-12-31T12:42:08.030Z,100581.94
2022-12-31T12:44:35.854Z,100580.94
2022-12-31T12:47:04.951Z,100575.09
2022-12-31T12:49:32.616Z,100586.34
2022-12-31T12:52:23.380Z,100586.53
2022-12-31T12:54:59.087Z,100592.34
2022-12-31T12:57:34.797Z,100591.34
2022-12-31T13:00:18.590Z,100589.53
2022-12-31T13:03:13.154Z,100596.38
2022-12-31T13:05:51.898Z,100599.97
2022-12-31T13:08:47.202Z,100607.56
2022-12-31T13:11:54.558Z,100611.56
2022-12-31T13:15:08.824Z,100611.56
2022-12-31T13:17:51.014Z,100613.59
2022-12-31T13:20:55.825Z,100613.22
2022-12-31T13:23:28.168Z,100618.06
2022-12-31T13:26:32.657Z,100617.47
2022-12-31T13:29:01.706Z,100629.38
2022-12-31T13:31:37.750Z,100624.34
2022-12-31T13:34:11.709Z,100613.28
2022-12-31T13:36:42.128Z,100622.16
2022-12-31T13:39:40.765Z,100625.97
2022-12-31T13:42:22.321Z,100622.56
2022-12-31T13:44:58.994Z,100628.22
2022-12-31T13:47:35.781Z,100628.00
2022-12-31T13:50:30.482Z,100637.66
2022-12-31T13:53:04.758Z,100631.81
2022-12-31T13:55:40.731Z,100633.06
2022-12-31T13:58:35.580Z,100631.25
2022-12-31T14:01:07.475Z,100635.88
2022-12-31T14:04:03.135Z,100631.25
2022-12-31T14:06:55.411Z,100628.44
2022-12-31T14:09:31.162Z,100632.66
2022-12-31T14:12:22.475Z,100630.63
2022-12-31T14:15:18.170Z,100623.56
2022-12-31T14:17:47.540Z,100604.50
2022-12-31T14:20:33.151Z,100612.91
2022-12-31T14:23:18.342Z,100632.19
2022-12-31T14:25:59.818Z,100629.00
2022-12-31T14:28:47.306Z,100630.63
2022-12-31T14:31:27.698Z,100639.66
2022-12-31T14:34:12.666Z,100679.03
2022-12-31T14:36:57.802Z,100659.19
2022-12-31T14:39:38.714Z,100678.09
2022-12-31T14:42:24.959Z,100667.88
2022-12-31T14:45:18.856Z,100672.09
2022-12-31T14:48:03.470Z,100669.69
2022-12-31T14:50:33.160Z,100660.28
2022-12-31T14:52:59.490Z,100670.09
2022-12-31T14:55:30.362Z,100666.13
2022-12-31T14:58:27.092Z,100674.31
2022-12-31T15:01:14.749Z,100692.00
2022-12-31T15:03:45.836Z,100690.19
2022-12-31T15:06:12.608Z,100687.78
2022-12-31T15:08:56.023Z,100685.59
2022-12-31T15:11:34.666Z,100689.03
2022-12-31T15:14:37.589Z,100683.38
2022-12-31T15:17:04.450Z,100687.38
2022-12-31T15:19:49.694Z,100663.69
2022-12-31T15:22:43.880Z,100672.50
2022-12-31T15:25:35.391Z,100667.50
2022-12-31T15:28:07.853Z,100663.09
2022-12-31T15:30:47.300Z,100666.28
2022-12-31T15:33:25.759Z,100670.72
2022-12-31T15:35:54.902Z,100656.84
2022-12-31T15:38:38.536Z,100646.19
2022-12-31T15:41:15.761Z,100639.94
2022-12-31T15:44:00.365Z,100644.75
2022-12-31T15:46:31.683Z,100638.75
2022-12-31T15:49:07.865Z,100646.31
2022-12-31T15:51:45.070Z,100646.50
2022-12-31T15:54:36.295Z,100649.09
2022-12-31T15:57:09.077Z,100655.09
2022-12-31T15:59:38.114Z,100643.22
2022-12-31T16:02:05.249Z,100657.50
2022-12-31T16:04:39.280Z,100656.69
2022-12-31T16:07:05.773Z,100646.84
2022-12-31T16:09:34.850Z,100650.84
2022-12-31T16:12:03.750Z,100654.84
2022-12-31T16:14:38.136Z,100658.06
2022-12-31T16:17:05.595Z,100650.00
2022-12-31T16:19:35.642Z,100651.56
2022-12-31T16:22:09.393Z,100646.75
2022-12-31T16:24:48.983Z,100638.31
2022-12-31T16:27:25.326Z,100626.09
2022-12-31T16:30:01.885Z,100633.69
2022-12-31T16:32:35.086Z,100630.13
2022-12-31T16:35:01.563Z,100623.06
2022-12-31T16:37:27.995Z,100626.88
2022-12-31T16:39:57.420Z,100639.47
2022-12-31T16:42:25.635Z,100629.03
2022-12-31T16:44:53.811Z,100626.19
2022-12-31T16:47:41.220Z,100620.56
2022-12-31T16:50:16.027Z,100634.19
2022-12-31T16:52:45.507Z,100626.78
2022-12-31T16:55:18.427Z,100629.38
2022-12-31T16:57:49.110Z,100632.00
2022-12-31T17:00:17.859Z,100628.97
2022-12-31T17:03:00.332Z,100631.59
2022-12-31T17:05:28.067Z,100614.28
2022-12-31T17:07:55.055Z,100616.91
2022-12-31T17:10:36.088Z,100617.31
2022-12-31T17:13:29.548Z,100616.94
2022-12-31T17:15:58.117Z,100632.22
2022-12-31T17:18:36.752Z,100631.25
2022-12-31T17:21:08.389Z,100621.38
2022-12-31T17:23:37.658Z,100615.59
2022-12-31T17:26:11.640Z,100613.75
2022-12-31T17:28:46.915Z,100617.59
2022-12-31T17:31:32.227Z,100617.22
2022-12-31T17:34:19.087Z,100614.03
2022-12-31T17:37:00.759Z,100610.34
2022-12-31T17:39:41.585Z,100606.72
2022-12-31T17:42:10.605Z,100616.78
2022-12-31T17:44:39.668Z,100607.56
2022-12-31T17:47:08.514Z,100609.00
2022-12-31T17:49:36.720Z,100622.84
2022-12-31T17:52:03.265Z,100608.78
2022-12-31T17:54:29.696Z,100615.19
2022-12-31T17:56:56.159Z,100628.00
2022-12-31T17:59:25.640Z,100620.56
2022-12-31T18:01:52.272Z,100630.63
2022-12-31T18:04:20.708Z,100637.06
2022-12-31T18:06:47.145Z,100622.78
2022-12-31T18:09:13.606Z,100632.63
2022-12-31T18:11:40.942Z,100624.38
2022-12-31T18:14:07.535Z,100631.63
2022-12-31T18:16:34.304Z,100616.31
2022-12-31T18:19:01.331Z,100629.38
2022-12-31T18:21:34.117Z,100628.22
2022-12-31T18:26:29.298Z,100624.00
2022-12-31T18:28:58.071Z,100621.19
2022-12-31T18:31:30.008Z,100627.19
2022-12-31T18:33:59.009Z,100622.56
2022-12-31T18:36:27.504Z,100622.56
2022-12-31T18:38:54.387Z,100615.94
2022-12-31T18:41:24.340Z,100622.78
2022-12-31T18:43:50.975Z,100635.41
2022-12-31T18:46:22.634Z,100635.59
2022-12-31T18:48:49.396Z,100629.75
2022-12-31T18:51:31.388Z,100632.16
2022-12-31T18:53:59.660Z,100629.75
2022-12-31T18:56:26.267Z,100634.19
2022-12-31T18:58:52.702Z,100640.22
2022-12-31T19:01:38.565Z,100626.94
2022-12-31T19:04:13.867Z,100633.56
2022-12-31T19:06:40.568Z,100640.78
2022-12-31T19:09:23.671Z,100650.81
2022-12-31T19:11:53.401Z,100642.16
2022-12-31T19:14:24.164Z,100646.78
2022-12-31T19:16:52.285Z,100653.03
2022-12-31T19:19:19.105Z,100629.72
2022-12-31T19:21:46.271Z,100659.22
2022-12-31T19:24:15.989Z,100646.38
2022-12-31T19:26:43.609Z,100657.78
2022-12-31T19:29:17.525Z,100660.06
2022-12-31T19:31:44.302Z,100647.59
2022-12-31T19:34:10.952Z,100648.41
2022-12-31T19:36:43.730Z,100644.97
2022-12-31T19:39:15.607Z,100644.28
2022-12-31T19:41:43.620Z,100653.91
2022-12-31T19:44:15.820Z,100644.50
2022-12-31T19:46:42.293Z,100640.84
2022-12-31T19:49:11.579Z,100636.84
2022-12-31T19:51:38.435Z,100650.50
2022-12-31T19:54:05.351Z,100651.75
2022-12-31T19:56:32.051Z,100651.53
2022-12-31T19:58:58.500Z,100670.03
2022-12-31T20:01:25.092Z,100668.63
2022-12-31T20:03:51.775Z,100657.38
2022-12-31T20:06:19.337Z,100665.22
2022-12-31T20:08:46.518Z,100667.03
2022-12-31T20:11:17.287Z,100676.84
2022-12-31T20:13:44.805Z,100663.19
2022-12-31T20:16:17.257Z,100671.63
2022-12-31T20:18:45.758Z,100667.63
2022-12-31T20:21:16.600Z,100678.88
2022-12-31T20:23:43.500Z,100671.41
2022-12-31T20:26:12.250Z,100683.25
2022-12-31T20:28:39.781Z,100690.06
2022-12-31T20:31:08.116Z,100687.28
2022-12-31T20:33:34.861Z,100658.56
2022-12-31T20:36:05.994Z,100678.88
2022-12-31T20:38:32.820Z,100675.47
2022-12-31T20:41:08.745Z,100667.78
2022-12-31T20:43:36.240Z,100674.81
2022-12-31T20:46:16.112Z,100682.03
2022-12-31T20:48:44.205Z,100680.81
2022-12-31T20:51:11.234Z,100690.28
2022-12-31T20:53:38.092Z,100697.91
2022-12-31T20:56:09.645Z,100686.66
2022-12-31T20:58:36.416Z,100694.47
2022-12-31T21:01:06.261Z,100688.59
2022-12-31T21:04:04.926Z,100692.22
2022-12-31T21:06:25.536Z,100687.41
2022-12-31T21:08:52.133Z,100682.19
2022-12-31T21:11:37.270Z,100676.97
2022-12-31T21:14:03.775Z,100691.00
2022-12-31T21:16:30.425Z,100702.25
2022-12-31T21:18:57.018Z,100693.22
2022-12-31T21:21:23.740Z,100700.25
2022-12-31T21:23:50.487Z,100694.81
2022-12-31T21:26:17.357Z,100703.03
2022-12-31T21:28:44.013Z,100716.72
2022-12-31T21:31:12.810Z,100710.09
2022-12-31T21:33:39.457Z,100723.56
2022-12-31T21:36:06.369Z,100721.16
2022-12-31T21:38:36.082Z,100721.91
2022-12-31T21:41:04.064Z,100732.56
2022-12-31T21:43:31.466Z,100731.56
2022-12-31T21:46:05.950Z,100742.81
2022-12-31T21:48:33.228Z,100740.00
2022-12-31T21:51:10.226Z,100746.06
2022-12-31T21:53:37.626Z,100742.09
2022-12-31T21:56:11.901Z,100743.38
2022-12-31T21:58:43.627Z,100740.75
2022-12-31T22:01:35.251Z,100739.13
2022-12-31T22:04:01.839Z,100734.28
2022-12-31T22:06:28.397Z,100742.09
2022-12-31T22:08:56.115Z,100739.69
2022-12-31T22:11:25.401Z,100734.44
2022-12-31T22:13:52.627Z,100732.16
2022-12-31T22:16:20.260Z,100733.56
2022-12-31T22:18:47.340Z,100731.84
2022-12-31T22:21:18.992Z,100723.34
2022-12-31T22:23:48.456Z,100732.22
2022-12-31T22:26:17.694Z,100734.81
2022-12-31T22:28:45.608Z,100735.03
2022-12-31T22:31:24.626Z,100734.25
2022-12-31T22:33:51.383Z,100731.19
2022-12-31T22:36:20.662Z,100742.44
2022-12-31T22:38:48.476Z,100741.88
2022-12-31T22:41:20.936Z,100740.84
2022-12-31T22:43:58.649Z,100741.22
2022-12-31T22:46:29.634Z,100744.84
2022-12-31T22:48:58.608Z,100741.63
2022-12-31T22:51:28.073Z,100757.50
2022-12-31T22:54:11.975Z,100749.47
2022-12-31T22:56:39.146Z,100771.16
2022-12-31T22:59:05.678Z,100767.38
2022-12-31T23:01:32.435Z,100767.38
2022-12-31T23:03:59.072Z,100758.88
2022-12-31T23:06:26.290Z,100755.88
2022-12-31T23:09:12.001Z,100759.75
2022-12-31T23:11:40.265Z,100760.97
2022-12-31T23:14:26.959Z,100763.00
2022-12-31T23:17:30.172Z,100778.22
2022-12-31T23:20:17.407Z,100775.00
2022-12-31T23:23:02.553Z,100773.78
2022-12-31T23:25:34.924Z,100778.84
2022-12-31T23:28:01.790Z,100785.03
2022-12-31T23:30:28.806Z,100797.13
2022-12-31T23:32:55.304Z,100790.09
2022-12-31T23:35:22.163Z,100796.13
2022-12-31T23:37:48.659Z,100797.91
2022-12-31T23:40:20.852Z,100806.78
2022-12-31T23:42:48.045Z,100780.66
2022-12-31T23:45:14.750Z,100787.41
2022-12-31T23:47:44.380Z,100794.47
2022-12-31T23:50:11.049Z,100814.44
2022-12-31T23:52:37.663Z,100809.19
2022-12-31T23:55:04.520Z,100819.06
2022-12-31T23:57:31.133Z,100806.34
2022-12-31T23:59:57.717Z,100811.00
